sensor_id;sensor_type;location;lat;lon;timestamp;P1;durP1;ratioP1;P2;durP2;ratioP2
22223;SDS011;11281;52.194;21.006;2022-08-20T00:00:55;10.65;;;6.55;;
22223;SDS011;11281;52.194;21.006;2022-08-20T00:05:23;8.07;;;5.43;;
22223;SDS011;11281;52.194;21.006;2022-08-20T00:09:57;11.98;;;6.20;;
22223;SDS011;11281;52.194;21.006;2022-08-20T00:14:19;9.57;;;5.85;;
22223;SDS011;11281;52.194;21.006;2022-08-20T00:18:40;10.90;;;6.30;;
22223;SDS011;11281;52.194;21.006;2022-08-20T00:23:03;8.88;;;6.18;;
22223;SDS011;11281;52.194;21.006;2022-08-20T00:27:25;10.13;;;5.93;;
22223;SDS011;11281;52.194;21.006;2022-08-20T00:31:47;10.98;;;6.70;;
22223;SDS011;11281;52.194;21.006;2022-08-20T00:36:10;13.70;;;6.20;;
22223;SDS011;11281;52.194;21.006;2022-08-20T00:40:35;12.70;;;7.00;;
22223;SDS011;11281;52.194;21.006;2022-08-20T00:45:03;10.60;;;6.43;;
22223;SDS011;11281;52.194;21.006;2022-08-20T00:49:27;16.42;;;7.97;;
22223;SDS011;11281;52.194;21.006;2022-08-20T00:53:54;11.00;;;7.70;;
22223;SDS011;11281;52.194;21.006;2022-08-20T00:58:22;11.38;;;6.88;;
22223;SDS011;11281;52.194;21.006;2022-08-20T01:02:44;9.52;;;7.03;;
22223;SDS011;11281;52.194;21.006;2022-08-20T01:07:07;8.82;;;6.95;;
22223;SDS011;11281;52.194;21.006;2022-08-20T01:11:30;9.63;;;7.30;;
22223;SDS011;11281;52.194;21.006;2022-08-20T01:15:56;10.48;;;6.75;;
22223;SDS011;11281;52.194;21.006;2022-08-20T01:20:33;8.82;;;5.95;;
22223;SDS011;11281;52.194;21.006;2022-08-20T01:25:24;8.52;;;5.47;;
22223;SDS011;11281;52.194;21.006;2022-08-20T01:30:26;9.98;;;5.22;;
22223;SDS011;11281;52.194;21.006;2022-08-20T01:34:49;9.40;;;6.25;;
22223;SDS011;11281;52.194;21.006;2022-08-20T01:39:12;11.57;;;5.50;;
22223;SDS011;11281;52.194;21.006;2022-08-20T01:43:38;9.27;;;6.45;;
22223;SDS011;11281;52.194;21.006;2022-08-20T01:48:01;10.35;;;6.00;;
22223;SDS011;11281;52.194;21.006;2022-08-20T01:52:38;10.90;;;5.80;;
22223;SDS011;11281;52.194;21.006;2022-08-20T01:57:11;8.20;;;5.38;;
22223;SDS011;11281;52.194;21.006;2022-08-20T02:01:38;7.43;;;5.78;;
22223;SDS011;11281;52.194;21.006;2022-08-20T02:06:00;8.65;;;5.95;;
22223;SDS011;11281;52.194;21.006;2022-08-20T02:10:23;8.38;;;6.20;;
22223;SDS011;11281;52.194;21.006;2022-08-20T02:14:47;9.32;;;5.75;;
22223;SDS011;11281;52.194;21.006;2022-08-20T02:19:14;9.00;;;6.13;;
22223;SDS011;11281;52.194;21.006;2022-08-20T02:23:41;7.25;;;5.85;;
22223;SDS011;11281;52.194;21.006;2022-08-20T02:28:04;9.73;;;5.97;;
22223;SDS011;11281;52.194;21.006;2022-08-20T02:32:30;9.18;;;5.97;;
22223;SDS011;11281;52.194;21.006;2022-08-20T02:36:52;10.73;;;6.28;;
22223;SDS011;11281;52.194;21.006;2022-08-20T02:41:14;8.00;;;6.22;;
22223;SDS011;11281;52.194;21.006;2022-08-20T02:45:36;12.43;;;6.28;;
22223;SDS011;11281;52.194;21.006;2022-08-20T02:50:04;10.63;;;6.07;;
22223;SDS011;11281;52.194;21.006;2022-08-20T02:54:27;8.55;;;5.80;;
22223;SDS011;11281;52.194;21.006;2022-08-20T02:58:49;8.98;;;6.30;;
22223;SDS011;11281;52.194;21.006;2022-08-20T03:03:11;11.00;;;5.80;;
22223;SDS011;11281;52.194;21.006;2022-08-20T03:07:45;10.02;;;6.00;;
22223;SDS011;11281;52.194;21.006;2022-08-20T03:12:10;10.70;;;6.32;;
22223;SDS011;11281;52.194;21.006;2022-08-20T03:16:32;9.18;;;6.35;;
22223;SDS011;11281;52.194;21.006;2022-08-20T03:20:54;10.55;;;6.03;;
22223;SDS011;11281;52.194;21.006;2022-08-20T03:25:15;11.75;;;6.18;;
22223;SDS011;11281;52.194;21.006;2022-08-20T03:29:38;8.93;;;5.78;;
22223;SDS011;11281;52.194;21.006;2022-08-20T03:33:59;10.52;;;6.72;;
22223;SDS011;11281;52.194;21.006;2022-08-20T03:38:21;10.82;;;6.20;;
22223;SDS011;11281;52.194;21.006;2022-08-20T03:42:44;13.10;;;7.20;;
22223;SDS011;11281;52.194;21.006;2022-08-20T03:47:06;10.23;;;6.53;;
22223;SDS011;11281;52.194;21.006;2022-08-20T03:51:29;18.10;;;6.78;;
22223;SDS011;11281;52.194;21.006;2022-08-20T03:55:52;8.23;;;6.28;;
22223;SDS011;11281;52.194;21.006;2022-08-20T04:00:17;7.95;;;5.75;;
22223;SDS011;11281;52.194;21.006;2022-08-20T04:04:44;9.20;;;6.68;;
22223;SDS011;11281;52.194;21.006;2022-08-20T04:09:06;10.73;;;6.97;;
22223;SDS011;11281;52.194;21.006;2022-08-20T04:13:28;10.25;;;6.70;;
22223;SDS011;11281;52.194;21.006;2022-08-20T04:17:51;8.63;;;6.30;;
22223;SDS011;11281;52.194;21.006;2022-08-20T04:22:13;12.25;;;7.47;;
22223;SDS011;11281;52.194;21.006;2022-08-20T04:26:35;10.77;;;6.68;;
22223;SDS011;11281;52.194;21.006;2022-08-20T04:30:58;9.73;;;6.65;;
22223;SDS011;11281;52.194;21.006;2022-08-20T04:35:22;11.88;;;6.95;;
22223;SDS011;11281;52.194;21.006;2022-08-20T04:39:47;11.48;;;6.70;;
22223;SDS011;11281;52.194;21.006;2022-08-20T04:44:30;10.47;;;6.77;;
22223;SDS011;11281;52.194;21.006;2022-08-20T04:48:52;9.88;;;6.88;;
22223;SDS011;11281;52.194;21.006;2022-08-20T04:53:15;14.95;;;7.45;;
22223;SDS011;11281;52.194;21.006;2022-08-20T04:57:40;9.80;;;6.85;;
22223;SDS011;11281;52.194;21.006;2022-08-20T05:02:02;11.75;;;7.60;;
22223;SDS011;11281;52.194;21.006;2022-08-20T05:06:25;15.65;;;7.70;;
22223;SDS011;11281;52.194;21.006;2022-08-20T05:10:51;13.48;;;7.35;;
22223;SDS011;11281;52.194;21.006;2022-08-20T05:15:15;11.43;;;7.75;;
22223;SDS011;11281;52.194;21.006;2022-08-20T05:19:36;12.48;;;7.35;;
22223;SDS011;11281;52.194;21.006;2022-08-20T05:24:00;11.80;;;6.70;;
22223;SDS011;11281;52.194;21.006;2022-08-20T05:28:23;9.68;;;7.07;;
22223;SDS011;11281;52.194;21.006;2022-08-20T05:32:52;14.70;;;7.43;;
22223;SDS011;11281;52.194;21.006;2022-08-20T05:37:14;11.35;;;7.78;;
22223;SDS011;11281;52.194;21.006;2022-08-20T05:41:37;11.35;;;7.20;;
22223;SDS011;11281;52.194;21.006;2022-08-20T05:46:00;13.07;;;7.20;;
22223;SDS011;11281;52.194;21.006;2022-08-20T05:50:22;11.57;;;6.95;;
22223;SDS011;11281;52.194;21.006;2022-08-20T05:54:44;11.00;;;7.55;;
22223;SDS011;11281;52.194;21.006;2022-08-20T05:59:07;10.07;;;7.30;;
22223;SDS011;11281;52.194;21.006;2022-08-20T06:03:30;13.35;;;8.40;;
22223;SDS011;11281;52.194;21.006;2022-08-20T06:08:10;12.98;;;7.53;;
22223;SDS011;11281;52.194;21.006;2022-08-20T06:12:33;10.93;;;7.20;;
22223;SDS011;11281;52.194;21.006;2022-08-20T06:17:00;13.07;;;6.90;;
22223;SDS011;11281;52.194;21.006;2022-08-20T06:21:27;11.48;;;7.75;;
22223;SDS011;11281;52.194;21.006;2022-08-20T06:25:48;10.70;;;7.88;;
22223;SDS011;11281;52.194;21.006;2022-08-20T06:30:12;12.13;;;8.38;;
22223;SDS011;11281;52.194;21.006;2022-08-20T06:34:35;12.82;;;7.72;;
22223;SDS011;11281;52.194;21.006;2022-08-20T06:38:57;12.98;;;7.90;;
22223;SDS011;11281;52.194;21.006;2022-08-20T06:43:19;13.65;;;7.93;;
22223;SDS011;11281;52.194;21.006;2022-08-20T06:47:41;11.13;;;7.68;;
22223;SDS011;11281;52.194;21.006;2022-08-20T06:52:04;17.35;;;8.32;;
22223;SDS011;11281;52.194;21.006;2022-08-20T06:56:26;13.00;;;7.63;;
22223;SDS011;11281;52.194;21.006;2022-08-20T07:00:48;12.65;;;8.20;;
22223;SDS011;11281;52.194;21.006;2022-08-20T07:05:09;14.63;;;8.20;;
22223;SDS011;11281;52.194;21.006;2022-08-20T07:09:31;13.50;;;8.07;;
22223;SDS011;11281;52.194;21.006;2022-08-20T07:13:53;12.15;;;7.57;;
22223;SDS011;11281;52.194;21.006;2022-08-20T07:18:16;13.25;;;8.20;;
22223;SDS011;11281;52.194;21.006;2022-08-20T07:22:38;11.73;;;7.75;;
22223;SDS011;11281;52.194;21.006;2022-08-20T07:27:02;10.57;;;7.75;;
22223;SDS011;11281;52.194;21.006;2022-08-20T07:31:24;10.25;;;7.70;;
22223;SDS011;11281;52.194;21.006;2022-08-20T07:36:04;10.57;;;7.72;;
22223;SDS011;11281;52.194;21.006;2022-08-20T07:40:29;14.90;;;8.35;;
22223;SDS011;11281;52.194;21.006;2022-08-20T07:44:53;14.43;;;7.55;;
22223;SDS011;11281;52.194;21.006;2022-08-20T07:49:15;14.18;;;7.78;;
22223;SDS011;11281;52.194;21.006;2022-08-20T07:53:37;11.70;;;7.72;;
22223;SDS011;11281;52.194;21.006;2022-08-20T07:58:10;15.98;;;8.13;;
22223;SDS011;11281;52.194;21.006;2022-08-20T08:02:34;11.63;;;7.70;;
22223;SDS011;11281;52.194;21.006;2022-08-20T08:06:56;16.75;;;8.07;;
22223;SDS011;11281;52.194;21.006;2022-08-20T08:11:20;12.93;;;7.35;;
22223;SDS011;11281;52.194;21.006;2022-08-20T08:15:45;14.43;;;7.85;;
22223;SDS011;11281;52.194;21.006;2022-08-20T08:20:09;9.63;;;7.80;;
22223;SDS011;11281;52.194;21.006;2022-08-20T08:24:32;14.15;;;7.65;;
22223;SDS011;11281;52.194;21.006;2022-08-20T08:28:54;14.32;;;8.13;;
22223;SDS011;11281;52.194;21.006;2022-08-20T08:33:19;15.27;;;7.13;;
22223;SDS011;11281;52.194;21.006;2022-08-20T08:37:47;17.55;;;7.85;;
22223;SDS011;11281;52.194;21.006;2022-08-20T08:46:57;14.80;;;7.38;;
22223;SDS011;11281;52.194;21.006;2022-08-20T08:51:39;13.50;;;7.35;;
22223;SDS011;11281;52.194;21.006;2022-08-20T08:56:06;17.15;;;8.00;;
22223;SDS011;11281;52.194;21.006;2022-08-20T09:00:29;9.25;;;6.75;;
22223;SDS011;11281;52.194;21.006;2022-08-20T09:04:52;12.85;;;6.47;;
22223;SDS011;11281;52.194;21.006;2022-08-20T09:09:18;10.98;;;6.63;;
22223;SDS011;11281;52.194;21.006;2022-08-20T09:13:45;10.30;;;6.97;;
22223;SDS011;11281;52.194;21.006;2022-08-20T09:18:06;10.45;;;7.00;;
22223;SDS011;11281;52.194;21.006;2022-08-20T09:22:28;12.80;;;7.32;;
22223;SDS011;11281;52.194;21.006;2022-08-20T09:26:53;12.02;;;6.75;;
22223;SDS011;11281;52.194;21.006;2022-08-20T09:31:14;11.73;;;7.13;;
22223;SDS011;11281;52.194;21.006;2022-08-20T09:35:36;15.30;;;7.07;;
22223;SDS011;11281;52.194;21.006;2022-08-20T09:39:59;13.38;;;7.15;;
22223;SDS011;11281;52.194;21.006;2022-08-20T09:44:21;12.50;;;6.53;;
22223;SDS011;11281;52.194;21.006;2022-08-20T09:48:43;11.77;;;5.82;;
22223;SDS011;11281;52.194;21.006;2022-08-20T09:53:05;10.07;;;6.75;;
22223;SDS011;11281;52.194;21.006;2022-08-20T09:57:26;11.35;;;6.53;;
22223;SDS011;11281;52.194;21.006;2022-08-20T10:01:50;12.85;;;6.95;;
22223;SDS011;11281;52.194;21.006;2022-08-20T10:06:12;11.65;;;6.40;;
22223;SDS011;11281;52.194;21.006;2022-08-20T10:10:36;10.13;;;6.40;;
22223;SDS011;11281;52.194;21.006;2022-08-20T10:14:58;10.23;;;6.15;;
22223;SDS011;11281;52.194;21.006;2022-08-20T10:19:20;8.13;;;6.18;;
22223;SDS011;11281;52.194;21.006;2022-08-20T10:23:42;10.57;;;6.75;;
22223;SDS011;11281;52.194;21.006;2022-08-20T10:28:04;9.30;;;7.20;;
22223;SDS011;11281;52.194;21.006;2022-08-20T10:32:26;9.23;;;6.60;;
22223;SDS011;11281;52.194;21.006;2022-08-20T10:36:48;8.98;;;6.57;;
22223;SDS011;11281;52.194;21.006;2022-08-20T10:41:10;11.40;;;6.50;;
22223;SDS011;11281;52.194;21.006;2022-08-20T10:45:32;10.75;;;6.97;;
22223;SDS011;11281;52.194;21.006;2022-08-20T10:49:57;11.25;;;6.57;;
22223;SDS011;11281;52.194;21.006;2022-08-20T10:54:22;9.85;;;6.18;;
22223;SDS011;11281;52.194;21.006;2022-08-20T10:58:44;12.25;;;6.28;;
22223;SDS011;11281;52.194;21.006;2022-08-20T11:03:05;14.70;;;6.53;;
22223;SDS011;11281;52.194;21.006;2022-08-20T11:07:35;7.32;;;6.00;;
22223;SDS011;11281;52.194;21.006;2022-08-20T11:12:00;9.73;;;6.22;;
22223;SDS011;11281;52.194;21.006;2022-08-20T11:16:22;7.20;;;5.47;;
22223;SDS011;11281;52.194;21.006;2022-08-20T11:20:44;11.07;;;5.65;;
22223;SDS011;11281;52.194;21.006;2022-08-20T11:25:06;11.82;;;6.40;;
22223;SDS011;11281;52.194;21.006;2022-08-20T11:29:29;13.02;;;5.82;;
22223;SDS011;11281;52.194;21.006;2022-08-20T11:33:51;9.77;;;5.70;;
22223;SDS011;11281;52.194;21.006;2022-08-20T11:38:12;8.18;;;5.88;;
22223;SDS011;11281;52.194;21.006;2022-08-20T11:42:35;9.82;;;5.88;;
22223;SDS011;11281;52.194;21.006;2022-08-20T11:47:01;9.38;;;6.10;;
22223;SDS011;11281;52.194;21.006;2022-08-20T11:51:25;9.60;;;5.47;;
22223;SDS011;11281;52.194;21.006;2022-08-20T11:55:46;10.90;;;5.50;;
22223;SDS011;11281;52.194;21.006;2022-08-20T12:00:10;8.50;;;5.63;;
22223;SDS011;11281;52.194;21.006;2022-08-20T12:04:36;15.15;;;6.25;;
22223;SDS011;11281;52.194;21.006;2022-08-20T12:08:58;12.95;;;5.40;;
22223;SDS011;11281;52.194;21.006;2022-08-20T12:13:20;11.63;;;5.90;;
22223;SDS011;11281;52.194;21.006;2022-08-20T12:17:42;10.15;;;6.03;;
22223;SDS011;11281;52.194;21.006;2022-08-20T12:22:03;17.45;;;6.03;;
22223;SDS011;11281;52.194;21.006;2022-08-20T12:26:26;17.73;;;6.13;;
22223;SDS011;11281;52.194;21.006;2022-08-20T12:30:47;37.22;;;11.88;;
22223;SDS011;11281;52.194;21.006;2022-08-20T12:35:10;22.35;;;7.53;;
22223;SDS011;11281;52.194;21.006;2022-08-20T12:39:33;7.07;;;5.25;;
22223;SDS011;11281;52.194;21.006;2022-08-20T12:44:01;8.70;;;5.28;;
22223;SDS011;11281;52.194;21.006;2022-08-20T12:48:26;6.70;;;5.05;;
22223;SDS011;11281;52.194;21.006;2022-08-20T12:52:48;11.02;;;5.47;;
22223;SDS011;11281;52.194;21.006;2022-08-20T12:57:15;11.88;;;6.22;;
22223;SDS011;11281;52.194;21.006;2022-08-20T13:01:48;13.82;;;6.10;;
22223;SDS011;11281;52.194;21.006;2022-08-20T13:06:12;14.02;;;5.18;;
22223;SDS011;11281;52.194;21.006;2022-08-20T13:10:34;16.15;;;6.25;;
22223;SDS011;11281;52.194;21.006;2022-08-20T13:15:04;8.45;;;5.03;;
22223;SDS011;11281;52.194;21.006;2022-08-20T13:19:26;15.98;;;5.47;;
22223;SDS011;11281;52.194;21.006;2022-08-20T13:23:50;8.07;;;5.40;;
22223;SDS011;11281;52.194;21.006;2022-08-20T13:28:12;14.50;;;4.88;;
22223;SDS011;11281;52.194;21.006;2022-08-20T13:32:34;9.18;;;5.20;;
22223;SDS011;11281;52.194;21.006;2022-08-20T13:36:55;9.00;;;5.60;;
22223;SDS011;11281;52.194;21.006;2022-08-20T13:41:17;10.30;;;6.10;;
22223;SDS011;11281;52.194;21.006;2022-08-20T13:45:42;65.10;;;12.48;;
22223;SDS011;11281;52.194;21.006;2022-08-20T13:50:09;10.38;;;5.28;;
22223;SDS011;11281;52.194;21.006;2022-08-20T13:54:37;10.27;;;4.88;;
22223;SDS011;11281;52.194;21.006;2022-08-20T13:58:59;8.85;;;4.78;;
22223;SDS011;11281;52.194;21.006;2022-08-20T14:03:21;10.45;;;5.38;;
22223;SDS011;11281;52.194;21.006;2022-08-20T14:07:43;10.93;;;5.68;;
22223;SDS011;11281;52.194;21.006;2022-08-20T14:12:06;11.15;;;5.28;;
22223;SDS011;11281;52.194;21.006;2022-08-20T14:16:28;10.88;;;5.60;;
22223;SDS011;11281;52.194;21.006;2022-08-20T14:20:50;8.02;;;5.60;;
22223;SDS011;11281;52.194;21.006;2022-08-20T14:25:15;11.95;;;5.85;;
22223;SDS011;11281;52.194;21.006;2022-08-20T14:29:40;8.23;;;5.78;;
22223;SDS011;11281;52.194;21.006;2022-08-20T14:34:04;7.85;;;5.03;;
22223;SDS011;11281;52.194;21.006;2022-08-20T14:38:26;7.75;;;5.45;;
22223;SDS011;11281;52.194;21.006;2022-08-20T14:42:48;8.10;;;5.47;;
22223;SDS011;11281;52.194;21.006;2022-08-20T14:47:13;10.55;;;5.28;;
22223;SDS011;11281;52.194;21.006;2022-08-20T14:51:39;13.93;;;5.78;;
22223;SDS011;11281;52.194;21.006;2022-08-20T14:56:01;8.35;;;5.28;;
22223;SDS011;11281;52.194;21.006;2022-08-20T15:00:28;10.93;;;5.53;;
22223;SDS011;11281;52.194;21.006;2022-08-20T15:04:50;8.40;;;5.15;;
22223;SDS011;11281;52.194;21.006;2022-08-20T15:09:12;10.38;;;6.03;;
22223;SDS011;11281;52.194;21.006;2022-08-20T15:13:36;9.02;;;5.53;;
22223;SDS011;11281;52.194;21.006;2022-08-20T15:17:58;13.60;;;7.78;;
22223;SDS011;11281;52.194;21.006;2022-08-20T15:22:21;11.70;;;8.20;;
22223;SDS011;11281;52.194;21.006;2022-08-20T15:26:44;9.68;;;6.70;;
22223;SDS011;11281;52.194;21.006;2022-08-20T15:31:10;11.25;;;6.70;;
22223;SDS011;11281;52.194;21.006;2022-08-20T15:35:33;17.87;;;9.53;;
22223;SDS011;11281;52.194;21.006;2022-08-20T15:39:55;25.95;;;16.02;;
22223;SDS011;11281;52.194;21.006;2022-08-20T15:44:17;19.80;;;11.05;;
22223;SDS011;11281;52.194;21.006;2022-08-20T15:48:42;17.80;;;13.13;;
22223;SDS011;11281;52.194;21.006;2022-08-20T15:53:11;23.70;;;14.32;;
22223;SDS011;11281;52.194;21.006;2022-08-20T16:07:20;13.52;;;8.40;;
22223;SDS011;11281;52.194;21.006;2022-08-20T16:12:37;12.85;;;5.93;;
22223;SDS011;11281;52.194;21.006;2022-08-20T16:17:03;9.95;;;5.80;;
22223;SDS011;11281;52.194;21.006;2022-08-20T16:21:34;10.90;;;5.78;;
22223;SDS011;11281;52.194;21.006;2022-08-20T16:31:01;15.40;;;5.85;;
22223;SDS011;11281;52.194;21.006;2022-08-20T16:40:42;10.85;;;6.03;;
22223;SDS011;11281;52.194;21.006;2022-08-20T16:44:56;13.60;;;7.00;;
22223;SDS011;11281;52.194;21.006;2022-08-20T16:49:19;9.18;;;6.15;;
22223;SDS011;11281;52.194;21.006;2022-08-20T16:53:45;7.75;;;6.18;;
22223;SDS011;11281;52.194;21.006;2022-08-20T16:58:07;8.10;;;5.70;;
22223;SDS011;11281;52.194;21.006;2022-08-20T17:02:29;12.77;;;6.50;;
22223;SDS011;11281;52.194;21.006;2022-08-20T17:06:51;21.77;;;6.70;;
22223;SDS011;11281;52.194;21.006;2022-08-20T17:11:13;10.60;;;5.93;;
22223;SDS011;11281;52.194;21.006;2022-08-20T17:15:53;13.10;;;6.28;;
22223;SDS011;11281;52.194;21.006;2022-08-20T17:20:41;14.15;;;7.53;;
22223;SDS011;11281;52.194;21.006;2022-08-20T17:25:28;12.70;;;6.65;;
22223;SDS011;11281;52.194;21.006;2022-08-20T17:30:02;10.00;;;6.80;;
22223;SDS011;11281;52.194;21.006;2022-08-20T17:34:49;11.57;;;7.60;;
22223;SDS011;11281;52.194;21.006;2022-08-20T17:39:16;15.48;;;6.55;;
22223;SDS011;11281;52.194;21.006;2022-08-20T17:43:40;14.13;;;8.18;;
22223;SDS011;11281;52.194;21.006;2022-08-20T17:48:06;14.13;;;9.20;;
22223;SDS011;11281;52.194;21.006;2022-08-20T17:52:37;17.80;;;11.50;;
22223;SDS011;11281;52.194;21.006;2022-08-20T17:57:11;24.10;;;8.93;;
22223;SDS011;11281;52.194;21.006;2022-08-20T18:01:36;17.98;;;8.93;;
22223;SDS011;11281;52.194;21.006;2022-08-20T18:06:43;20.10;;;10.05;;
22223;SDS011;11281;52.194;21.006;2022-08-20T18:11:16;16.27;;;9.57;;
22223;SDS011;11281;52.194;21.006;2022-08-20T18:15:48;14.35;;;8.98;;
22223;SDS011;11281;52.194;21.006;2022-08-20T18:29:44;13.05;;;8.27;;
22223;SDS011;11281;52.194;21.006;2022-08-20T18:34:16;14.18;;;7.63;;
22223;SDS011;11281;52.194;21.006;2022-08-20T18:38:57;13.32;;;7.47;;
22223;SDS011;11281;52.194;21.006;2022-08-20T18:43:31;11.32;;;8.02;;
22223;SDS011;11281;52.194;21.006;2022-08-20T18:47:53;11.27;;;7.85;;
22223;SDS011;11281;52.194;21.006;2022-08-20T18:52:17;10.90;;;7.13;;
22223;SDS011;11281;52.194;21.006;2022-08-20T18:56:48;12.18;;;7.28;;
22223;SDS011;11281;52.194;21.006;2022-08-20T19:01:24;11.40;;;6.75;;
22223;SDS011;11281;52.194;21.006;2022-08-20T19:05:59;13.15;;;7.18;;
22223;SDS011;11281;52.194;21.006;2022-08-20T19:15:20;11.80;;;7.05;;
22223;SDS011;11281;52.194;21.006;2022-08-20T19:19:43;14.98;;;8.65;;
22223;SDS011;11281;52.194;21.006;2022-08-20T19:24:05;19.10;;;10.73;;
22223;SDS011;11281;52.194;21.006;2022-08-20T19:28:33;26.17;;;17.08;;
22223;SDS011;11281;52.194;21.006;2022-08-20T19:33:03;32.55;;;17.65;;
22223;SDS011;11281;52.194;21.006;2022-08-20T19:37:27;23.17;;;15.30;;
22223;SDS011;11281;52.194;21.006;2022-08-20T19:46:37;16.25;;;10.93;;
22223;SDS011;11281;52.194;21.006;2022-08-20T19:55:55;12.20;;;7.93;;
22223;SDS011;11281;52.194;21.006;2022-08-20T20:00:27;14.35;;;7.10;;
22223;SDS011;11281;52.194;21.006;2022-08-20T20:04:58;9.23;;;6.82;;
22223;SDS011;11281;52.194;21.006;2022-08-20T20:09:24;8.07;;;5.30;;
22223;SDS011;11281;52.194;21.006;2022-08-20T20:13:49;10.52;;;5.38;;
22223;SDS011;11281;52.194;21.006;2022-08-20T20:18:11;8.70;;;5.60;;
22223;SDS011;11281;52.194;21.006;2022-08-20T20:22:46;7.72;;;5.47;;
22223;SDS011;11281;52.194;21.006;2022-08-20T20:27:22;7.47;;;5.80;;
22223;SDS011;11281;52.194;21.006;2022-08-20T20:31:47;9.73;;;5.57;;
22223;SDS011;11281;52.194;21.006;2022-08-20T20:36:15;9.75;;;5.72;;
22223;SDS011;11281;52.194;21.006;2022-08-20T20:45:17;7.25;;;5.72;;
22223;SDS011;11281;52.194;21.006;2022-08-20T20:54:39;10.85;;;6.55;;
22223;SDS011;11281;52.194;21.006;2022-08-20T20:59:05;11.60;;;6.32;;
22223;SDS011;11281;52.194;21.006;2022-08-20T21:03:27;9.07;;;5.90;;
22223;SDS011;11281;52.194;21.006;2022-08-20T21:07:54;9.10;;;5.78;;
22223;SDS011;11281;52.194;21.006;2022-08-20T21:12:19;8.55;;;5.60;;
22223;SDS011;11281;52.194;21.006;2022-08-20T21:16:41;7.38;;;5.85;;
22223;SDS011;11281;52.194;21.006;2022-08-20T21:21:04;6.15;;;4.95;;
22223;SDS011;11281;52.194;21.006;2022-08-20T21:25:28;6.93;;;5.40;;
22223;SDS011;11281;52.194;21.006;2022-08-20T21:29:53;12.50;;;5.82;;
22223;SDS011;11281;52.194;21.006;2022-08-20T21:34:15;9.13;;;5.53;;
22223;SDS011;11281;52.194;21.006;2022-08-20T21:38:37;6.90;;;5.32;;
22223;SDS011;11281;52.194;21.006;2022-08-20T21:42:59;6.63;;;5.03;;
22223;SDS011;11281;52.194;21.006;2022-08-20T21:47:20;6.88;;;5.28;;
22223;SDS011;11281;52.194;21.006;2022-08-20T21:51:42;8.43;;;5.47;;
22223;SDS011;11281;52.194;21.006;2022-08-20T21:56:04;9.85;;;5.40;;
22223;SDS011;11281;52.194;21.006;2022-08-20T22:00:43;9.27;;;5.15;;
22223;SDS011;11281;52.194;21.006;2022-08-20T22:05:05;5.97;;;4.55;;
22223;SDS011;11281;52.194;21.006;2022-08-20T22:09:28;7.88;;;4.95;;
22223;SDS011;11281;52.194;21.006;2022-08-20T22:13:52;8.55;;;4.85;;
22223;SDS011;11281;52.194;21.006;2022-08-20T22:18:17;9.23;;;5.13;;
22223;SDS011;11281;52.194;21.006;2022-08-20T22:22:39;9.40;;;5.93;;
22223;SDS011;11281;52.194;21.006;2022-08-20T22:27:01;7.07;;;5.40;;
22223;SDS011;11281;52.194;21.006;2022-08-20T22:31:25;10.10;;;5.10;;
22223;SDS011;11281;52.194;21.006;2022-08-20T22:35:52;7.65;;;5.32;;
22223;SDS011;11281;52.194;21.006;2022-08-20T22:40:16;7.85;;;5.22;;
22223;SDS011;11281;52.194;21.006;2022-08-20T22:44:38;12.43;;;7.75;;
22223;SDS011;11281;52.194;21.006;2022-08-20T22:49:01;19.38;;;11.82;;
22223;SDS011;11281;52.194;21.006;2022-08-20T22:53:24;23.65;;;14.73;;
22223;SDS011;11281;52.194;21.006;2022-08-20T22:57:47;21.25;;;11.45;;
22223;SDS011;11281;52.194;21.006;2022-08-20T23:02:11;14.88;;;9.45;;
22223;SDS011;11281;52.194;21.006;2022-08-20T23:06:37;8.43;;;5.93;;
22223;SDS011;11281;52.194;21.006;2022-08-20T23:10:58;8.70;;;5.38;;
22223;SDS011;11281;52.194;21.006;2022-08-20T23:15:20;6.28;;;5.00;;
22223;SDS011;11281;52.194;21.006;2022-08-20T23:19:43;8.00;;;4.70;;
22223;SDS011;11281;52.194;21.006;2022-08-20T23:24:07;5.35;;;4.72;;
22223;SDS011;11281;52.194;21.006;2022-08-20T23:28:28;9.00;;;5.28;;
22223;SDS011;11281;52.194;21.006;2022-08-20T23:32:50;6.55;;;4.97;;
22223;SDS011;11281;52.194;21.006;2022-08-20T23:37:13;7.68;;;4.78;;
22223;SDS011;11281;52.194;21.006;2022-08-20T23:46:03;12.00;;;5.28;;
22223;SDS011;11281;52.194;21.006;2022-08-20T23:50:28;8.50;;;5.05;;
22223;SDS011;11281;52.194;21.006;2022-08-20T23:54:50;11.45;;;5.53;;
22223;SDS011;11281;52.194;21.006;2022-08-20T23:59:12;8.10;;;4.95;;
